Time;durP1;ratioP1;P1;durP2;ratioP2;P2;SDS_P1;SDS_P2;PMS_P1;PMS_P2;Temp;Humidity;BMP_temperature;BMP_pressure;BME280_temperature;BME280_humidity;BME280_pressure;Samples;Min_cycle;Max_cycle;Signal;HPM_P1;HPM_P2
2023/10/21 00:00:05;;;;;;;10.15;2.72;;;38.40;27.20;;;;;;5043253;28;20144;-69
2023/10/21 00:02:35;;;;;;;7.90;2.60;;;38.30;24.80;;;;;;5036338;28;20510;-69
2023/10/21 00:05:05;;;;;;;7.05;2.15;;;38.20;25.90;;;;;;5040773;28;20071;-68
2023/10/21 00:07:31;;;;;;;10.50;2.38;;;38.20;26.10;;;;;;5035086;28;20021;-68
2023/10/21 00:09:59;;;;;;;20.38;2.70;;;38.20;25.40;;;;;;5034215;28;20053;-69
2023/10/21 00:12:26;;;;;;;18.88;10.63;;;38.10;27.40;;;;;;5035672;28;20061;-69
2023/10/21 00:14:52;;;;;;;70.72;61.83;;;38.00;27.90;;;;;;5035532;28;20404;-68
2023/10/21 00:17:19;;;;;;;19.15;11.27;;;37.90;27.50;;;;;;5035306;28;20037;-68
2023/10/21 00:19:45;;;;;;;12.68;4.03;;;37.70;27.90;;;;;;5032587;28;20036;-69
2023/10/21 00:22:12;;;;;;;15.82;6.88;;;37.60;28.40;;;;;;5035507;28;20490;-70
2023/10/21 00:24:39;;;;;;;11.93;5.38;;;37.50;28.80;;;;;;5038810;28;20017;-67
2023/10/21 00:27:05;;;;;;;6.15;2.70;;;37.40;28.60;;;;;;5029632;28;20076;-67
2023/10/21 00:29:34;;;;;;;9.25;2.90;;;37.30;28.20;;;;;;5035795;28;20018;-66
2023/10/21 00:32:04;;;;;;;12.23;2.83;;;37.10;29.10;;;;;;5033150;28;20354;-66
2023/10/21 00:34:37;;;;;;;10.68;2.40;;;37.00;29.90;;;;;;5029924;28;20112;-67
2023/10/21 00:39:52;;;;;;;19.05;3.63;;;36.70;29.40;;;;;;5000845;28;20030;-67
2023/10/21 00:42:30;;;;;;;38.42;5.05;;;36.60;29.70;;;;;;4989332;28;20627;-67
2023/10/21 00:44:56;;;;;;;30.92;5.22;;;36.40;30.00;;;;;;4993946;28;20046;-68
2023/10/21 00:47:26;;;;;;;32.95;4.50;;;36.20;29.40;;;;;;4991829;28;21655;-68
2023/10/21 00:50:16;;;;;;;28.15;4.75;;;36.00;29.70;;;;;;4994026;28;20116;-67
2023/10/21 00:52:53;;;;;;;39.50;4.80;;;35.90;30.10;;;;;;4991314;28;20109;-70
2023/10/21 00:55:20;;;;;;;30.98;4.75;;;35.70;29.80;;;;;;4983983;28;20034;-67
2023/10/21 00:57:47;;;;;;;25.77;4.20;;;35.60;29.70;;;;;;4983851;28;20057;-67
2023/10/21 01:00:17;;;;;;;23.35;4.53;;;35.40;29.50;;;;;;4986622;28;20112;-67
2023/10/21 01:02:47;;;;;;;26.35;4.88;;;35.30;29.70;;;;;;4985002;28;20036;-66
2023/10/21 01:05:19;;;;;;;23.60;4.72;;;35.20;30.40;;;;;;4982795;28;20073;-67
2023/10/21 01:07:45;;;;;;;16.85;3.78;;;35.00;30.40;;;;;;4983658;28;20050;-67
2023/10/21 01:10:21;;;;;;;26.15;4.10;;;35.00;30.40;;;;;;4982633;28;20072;-69
2023/10/21 01:12:48;;;;;;;31.25;4.47;;;34.80;31.30;;;;;;4982900;28;20026;-67
2023/10/21 01:15:21;;;;;;;34.25;5.22;;;34.60;31.00;;;;;;4983970;28;20502;-66
2023/10/21 01:17:51;;;;;;;35.92;5.78;;;34.50;31.90;;;;;;5023159;28;20030;-68
2023/10/21 01:20:24;;;;;;;61.22;6.38;;;34.40;32.70;;;;;;5031290;28;20027;-67
2023/10/21 01:23:16;;;;;;;56.03;6.78;;;34.30;32.60;;;;;;5021955;28;20033;-68
2023/10/21 01:25:43;;;;;;;48.53;6.15;;;34.10;32.30;;;;;;5023341;28;20649;-68
2023/10/21 01:28:14;;;;;;;45.03;5.40;;;34.00;33.10;;;;;;5028100;28;20032;-68
2023/10/21 01:30:43;;;;;;;42.83;5.28;;;33.80;33.50;;;;;;5025808;28;20075;-68
2023/10/21 01:33:10;;;;;;;36.70;5.60;;;33.80;33.30;;;;;;5028133;28;20084;-71
2023/10/21 01:35:40;;;;;;;29.38;5.43;;;33.60;33.10;;;;;;5029929;28;20033;-66
2023/10/21 01:38:25;;;;;;;44.83;6.53;;;33.50;33.40;;;;;;5022622;28;20030;-68
2023/10/21 01:40:52;;;;;;;42.65;5.93;;;33.40;33.70;;;;;;5025649;28;20043;-67
2023/10/21 01:43:19;;;;;;;47.13;6.50;;;33.30;33.30;;;;;;5023185;28;20177;-67
2023/10/21 01:45:49;;;;;;;33.88;6.03;;;33.20;33.00;;;;;;5025005;28;20369;-68
2023/10/21 01:48:23;;;;;;;35.65;5.95;;;33.10;33.90;;;;;;5025260;28;20043;-68
2023/10/21 01:50:58;;;;;;;46.45;6.45;;;33.00;34.00;;;;;;5028886;28;20093;-68
2023/10/21 01:53:25;;;;;;;46.67;7.72;;;32.90;33.80;;;;;;5026214;28;20051;-67
2023/10/21 01:56:00;;;;;;;52.05;6.93;;;32.90;33.70;;;;;;5032655;28;20122;-66
2023/10/21 01:58:27;;;;;;;38.75;6.85;;;32.80;33.70;;;;;;5033323;28;20078;-65
2023/10/21 02:00:57;;;;;;;51.30;7.57;;;32.70;34.50;;;;;;5029431;28;20700;-68
2023/10/21 02:03:28;;;;;;;55.33;8.48;;;32.70;35.60;;;;;;5032069;28;20550;-66
2023/10/21 02:05:54;;;;;;;59.72;7.95;;;32.60;35.60;;;;;;5031923;28;20074;-68
2023/10/21 02:08:21;;;;;;;58.53;8.40;;;32.50;35.90;;;;;;5025436;28;20635;-67
2023/10/21 02:10:48;;;;;;;40.15;7.53;;;32.50;35.20;;;;;;5032773;28;20517;-67
2023/10/21 02:13:20;;;;;;;54.25;8.07;;;32.30;35.80;;;;;;5030744;28;20046;-68
2023/10/21 02:16:08;;;;;;;61.63;9.25;;;32.30;36.60;;;;;;5025813;28;20533;-68
2023/10/21 02:18:33;;;;;;;;;;;32.20;36.60;;;;;;5029072;28;20082;-67
2023/10/21 02:21:18;;;;;;;62.35;10.10;;;32.10;36.40;;;;;;5030050;28;19938;-67
2023/10/21 02:23:45;;;;;;;76.38;11.18;;;32.10;36.90;;;;;;5030541;28;20512;-67
2023/10/21 02:26:12;;;;;;;75.38;11.27;;;32.00;36.60;;;;;;5029484;28;20051;-68
2023/10/21 02:28:42;;;;;;;75.55;11.02;;;31.90;36.70;;;;;;5036172;28;20130;-67
2023/10/21 02:31:09;;;;;;;100.60;11.65;;;31.90;36.90;;;;;;5031560;28;20124;-68
2023/10/21 02:33:38;;;;;;;81.97;10.98;;;31.80;36.40;;;;;;5033261;28;20085;-66
2023/10/21 02:36:05;;;;;;;65.25;10.75;;;31.70;36.50;;;;;;5034729;28;20073;-68
2023/10/21 02:38:42;;;;;;;63.97;12.20;;;31.70;36.90;;;;;;5033499;28;20048;-67
2023/10/21 02:41:09;;;;;;;60.13;10.85;;;31.60;37.30;;;;;;5033892;28;20132;-67
2023/10/21 02:43:35;;;;;;;71.95;11.82;;;31.50;37.70;;;;;;5037208;28;20052;-68
2023/10/21 02:46:31;;;;;;;66.53;12.15;;;31.50;37.50;;;;;;5035469;28;20062;-67
2023/10/21 02:49:04;;;;;;;62.22;11.98;;;31.40;37.90;;;;;;5018055;28;20062;-68
2023/10/21 02:51:43;;;;;;;89.53;12.13;;;31.30;37.50;;;;;;5018940;28;20063;-68
2023/10/21 02:54:16;;;;;;;88.85;12.82;;;31.30;37.30;;;;;;5017577;28;20061;-67
2023/10/21 02:56:52;;;;;;;79.03;13.00;;;31.20;38.00;;;;;;5014559;28;20543;-67
2023/10/21 02:59:24;;;;;;;69.50;12.85;;;31.20;37.90;;;;;;5016120;28;20062;-68
2023/10/21 03:01:55;;;;;;;56.83;12.02;;;31.10;37.70;;;;;;5019495;28;20066;-66
2023/10/21 03:04:25;;;;;;;80.32;12.90;;;31.00;38.70;;;;;;5017636;28;20046;-68
2023/10/21 03:06:54;;;;;;;84.82;13.93;;;31.00;38.60;;;;;;5013637;28;20149;-67
2023/10/21 03:09:22;;;;;;;88.05;14.55;;;30.90;39.00;;;;;;5013193;28;20074;-66
2023/10/21 03:11:48;;;;;;;76.32;14.73;;;30.90;39.30;;;;;;5011299;28;20074;-67
2023/10/21 03:14:15;;;;;;;93.45;14.70;;;30.80;39.40;;;;;;5012476;28;20066;-68
2023/10/21 03:16:42;;;;;;;99.72;15.63;;;30.70;39.40;;;;;;5009473;28;20216;-68
2023/10/21 03:19:11;;;;;;;69.30;13.70;;;30.70;39.50;;;;;;5022908;28;20685;-67
2023/10/21 03:21:53;;;;;;;70.85;13.95;;;30.60;39.40;;;;;;5029447;28;20057;-68
2023/10/21 03:24:22;;;;;;;75.07;13.63;;;30.60;39.60;;;;;;5029681;28;20634;-67
2023/10/21 03:26:55;;;;;;;88.05;14.90;;;30.50;39.70;;;;;;5037681;28;20051;-67
2023/10/21 03:29:28;;;;;;;80.50;15.88;;;30.50;40.20;;;;;;5045134;28;20061;-67
2023/10/21 03:31:55;;;;;;;69.43;14.30;;;30.40;40.50;;;;;;5033489;28;20104;-68
2023/10/21 03:34:21;;;;;;;84.88;15.45;;;30.40;40.90;;;;;;5042463;28;20056;-67
2023/10/21 03:36:48;;;;;;;85.88;16.00;;;30.30;41.00;;;;;;5047482;28;20083;-70
2023/10/21 03:39:15;;;;;;;70.95;15.73;;;30.30;41.40;;;;;;5037233;28;20530;-69
2023/10/21 03:41:42;;;;;;;80.88;14.57;;;30.20;41.20;;;;;;5043393;28;20055;-69
2023/10/21 03:44:08;;;;;;;79.88;14.10;;;30.10;41.70;;;;;;5043011;28;20519;-68
2023/10/21 03:46:35;;;;;;;84.18;15.93;;;30.10;41.60;;;;;;5044734;28;20055;-68
2023/10/21 03:49:02;;;;;;;85.93;15.25;;;30.00;41.50;;;;;;5030785;28;20058;-68
2023/10/21 03:51:29;;;;;;;65.80;15.70;;;30.00;42.30;;;;;;5039857;28;20130;-68
2023/10/21 03:53:55;;;;;;;72.20;17.73;;;29.90;42.60;;;;;;5028280;28;20062;-66
2023/10/21 03:56:21;;;;;;;97.75;19.20;;;29.80;41.90;;;;;;5028939;28;20076;-70
2023/10/21 03:58:48;;;;;;;94.75;20.25;;;29.80;41.90;;;;;;5041083;28;20056;-68
2023/10/21 04:01:14;;;;;;;82.13;18.75;;;29.80;42.30;;;;;;5035932;28;20073;-67
2023/10/21 04:03:41;;;;;;;83.95;20.10;;;29.70;42.50;;;;;;5036606;28;20061;-68
2023/10/21 04:06:13;;;;;;;90.45;21.70;;;29.70;43.60;;;;;;5037911;28;20056;-68
2023/10/21 04:08:40;;;;;;;91.10;23.48;;;29.60;43.20;;;;;;5035974;28;20051;-67
2023/10/21 04:11:06;;;;;;;104.60;26.67;;;29.60;43.10;;;;;;5027009;28;20055;-65
2023/10/21 04:13:33;;;;;;;113.60;27.70;;;29.60;43.30;;;;;;5035865;28;20077;-67
2023/10/21 04:16:00;;;;;;;123.57;28.15;;;29.50;43.10;;;;;;5031905;28;20051;-69
2023/10/21 04:18:26;;;;;;;104.50;29.40;;;29.50;43.30;;;;;;5024704;28;20060;-67
2023/10/21 04:20:54;;;;;;;106.43;29.08;;;29.50;43.70;;;;;;5033741;28;20157;-66
2023/10/21 04:23:21;;;;;;;119.85;29.02;;;29.40;43.80;;;;;;5028561;28;20051;-66
2023/10/21 04:25:48;;;;;;;97.50;26.55;;;29.30;44.70;;;;;;5032475;28;20057;-69
2023/10/21 04:28:15;;;;;;;90.40;27.73;;;29.30;45.00;;;;;;5031936;28;20088;-66
2023/10/21 04:30:45;;;;;;;90.75;27.88;;;29.20;45.20;;;;;;5035625;28;20065;-67
2023/10/21 04:33:12;;;;;;;102.60;28.50;;;29.10;45.00;;;;;;5032547;28;20070;-67
2023/10/21 04:35:38;;;;;;;107.85;28.63;;;29.10;44.30;;;;;;5040295;28;20177;-67
2023/10/21 04:38:07;;;;;;;101.35;28.05;;;29.00;44.10;;;;;;5033992;28;20069;-67
2023/10/21 04:40:33;;;;;;;93.60;26.60;;;29.00;45.50;;;;;;5024683;28;20062;-66
2023/10/21 04:43:00;;;;;;;105.57;26.92;;;28.90;44.30;;;;;;5033435;28;20054;-68
2023/10/21 04:45:27;;;;;;;122.88;27.60;;;28.80;44.60;;;;;;5037029;28;20060;-67
2023/10/21 04:47:54;;;;;;;93.22;27.70;;;28.80;44.40;;;;;;5038256;28;20144;-67
2023/10/21 04:50:20;;;;;;;106.97;26.23;;;28.80;46.20;;;;;;5033000;28;20068;-67
2023/10/21 04:52:47;;;;;;;96.60;26.00;;;28.80;46.40;;;;;;5038806;28;20063;-66
2023/10/21 04:55:14;;;;;;;102.85;27.80;;;28.70;46.30;;;;;;5036901;28;20159;-67
2023/10/21 04:57:40;;;;;;;103.43;27.73;;;28.70;46.30;;;;;;5028572;28;20066;-67
2023/10/21 05:00:08;;;;;;;108.90;27.23;;;28.70;45.20;;;;;;5025108;28;20141;-67
2023/10/21 05:02:34;;;;;;;114.25;27.15;;;28.70;46.60;;;;;;5034258;28;20056;-68
2023/10/21 05:05:01;;;;;;;113.22;28.08;;;28.60;46.30;;;;;;5038504;28;20068;-68
2023/10/21 05:07:27;;;;;;;108.03;27.40;;;28.60;46.00;;;;;;5033349;28;20053;-68
2023/10/21 05:09:54;;;;;;;115.70;28.10;;;28.60;47.80;;;;;;5032480;28;20064;-66
2023/10/21 05:12:20;;;;;;;118.90;29.08;;;28.50;45.40;;;;;;5028711;28;20118;-67
2023/10/21 05:14:47;;;;;;;92.90;29.67;;;28.50;46.10;;;;;;5031883;28;20534;-67
2023/10/21 05:17:13;;;;;;;98.43;30.08;;;28.50;45.40;;;;;;5033734;28;20085;-66
2023/10/21 05:19:40;;;;;;;126.53;31.73;;;28.50;46.00;;;;;;5028793;28;20150;-66
2023/10/21 05:22:06;;;;;;;91.38;30.58;;;28.40;45.60;;;;;;5031610;28;20069;-65
2023/10/21 05:24:33;;;;;;;115.30;30.42;;;28.30;46.10;;;;;;5031013;28;20074;-66
2023/10/21 05:26:59;;;;;;;122.07;32.28;;;28.30;46.20;;;;;;5036664;28;20068;-67
2023/10/21 05:29:27;;;;;;;125.10;32.63;;;28.20;46.70;;;;;;5030028;28;20064;-65
2023/10/21 05:31:53;;;;;;;105.20;29.42;;;28.20;48.20;;;;;;5031352;28;20544;-66
2023/10/21 05:34:19;;;;;;;105.35;31.77;;;28.20;47.10;;;;;;5026746;28;20106;-68
2023/10/21 05:36:46;;;;;;;111.85;31.85;;;28.10;47.50;;;;;;5033512;28;20132;-66
2023/10/21 05:39:13;;;;;;;102.50;30.33;;;28.10;47.50;;;;;;5030688;28;20075;-66
2023/10/21 05:41:41;;;;;;;105.47;31.45;;;28.00;47.50;;;;;;5031715;28;20067;-66
2023/10/21 05:44:11;;;;;;;110.18;37.60;;;28.00;47.80;;;;;;5030825;28;20058;-67
2023/10/21 05:46:37;;;;;;;130.82;41.80;;;28.00;47.40;;;;;;5026524;28;20518;-67
2023/10/21 05:49:05;;;;;;;115.75;35.97;;;27.90;48.10;;;;;;5033702;28;20069;-67
2023/10/21 05:51:31;;;;;;;118.47;44.17;;;27.90;48.80;;;;;;5025173;28;20070;-67
2023/10/21 05:53:58;;;;;;;123.75;28.48;;;27.90;48.30;;;;;;5026797;28;20062;-68
2023/10/21 05:56:24;;;;;;;101.90;27.48;;;27.90;48.10;;;;;;5024135;28;20112;-68
2023/10/21 05:58:51;;;;;;;99.53;26.90;;;27.80;48.10;;;;;;5021872;28;20112;-66
2023/10/21 06:01:17;;;;;;;101.22;28.80;;;27.70;48.20;;;;;;5029454;28;20106;-66
2023/10/21 06:03:44;;;;;;;111.25;29.98;;;27.70;48.40;;;;;;5032448;28;20069;-67
2023/10/21 06:06:10;;;;;;;105.15;28.85;;;27.60;48.40;;;;;;5026753;28;20053;-68
2023/10/21 06:08:37;;;;;;;86.10;27.08;;;27.60;49.50;;;;;;5029287;28;20067;-68
2023/10/21 06:11:03;;;;;;;93.63;27.85;;;27.60;49.90;;;;;;5035070;28;20065;-68
2023/10/21 06:13:30;;;;;;;101.97;27.50;;;27.60;50.20;;;;;;5042838;28;20528;-69
2023/10/21 06:15:56;;;;;;;98.78;26.58;;;27.50;49.70;;;;;;5030406;28;20485;-67
2023/10/21 06:18:23;;;;;;;96.25;27.33;;;27.50;49.80;;;;;;5028617;28;20421;-67
2023/10/21 06:20:50;;;;;;;73.85;24.88;;;27.40;49.40;;;;;;5028949;28;20062;-66
2023/10/21 06:23:17;;;;;;;97.53;27.73;;;27.40;49.40;;;;;;5027394;28;20070;-66
2023/10/21 06:25:44;;;;;;;88.43;25.83;;;27.30;49.90;;;;;;5033333;28;20068;-68
2023/10/21 06:28:13;;;;;;;99.13;28.30;;;27.30;49.90;;;;;;5036130;28;20569;-67
2023/10/21 06:30:42;;;;;;;98.95;25.85;;;27.20;49.70;;;;;;5028351;28;20069;-68
2023/10/21 06:33:09;;;;;;;87.65;25.23;;;27.20;49.80;;;;;;5037398;28;20816;-67
2023/10/21 06:35:39;;;;;;;79.43;26.27;;;27.20;49.80;;;;;;5029599;28;20123;-67
2023/10/21 06:38:07;;;;;;;86.75;28.65;;;27.20;49.80;;;;;;5031736;28;20131;-67
2023/10/21 06:40:33;;;;;;;100.40;28.00;;;27.20;51.20;;;;;;5034491;28;20098;-68
2023/10/21 06:43:00;;;;;;;94.55;27.67;;;27.10;50.80;;;;;;5027574;28;20076;-68
2023/10/21 06:45:27;;;;;;;85.05;28.08;;;27.20;50.60;;;;;;5035463;28;20064;-67
2023/10/21 06:47:54;;;;;;;72.72;26.25;;;27.10;50.90;;;;;;5028873;28;20190;-67
2023/10/21 06:50:20;;;;;;;103.63;27.95;;;27.10;51.20;;;;;;5031484;28;20066;-68
2023/10/21 06:52:47;;;;;;;76.53;27.23;;;27.10;50.70;;;;;;5029165;28;20076;-68
2023/10/21 06:55:14;;;;;;;91.63;27.23;;;27.10;51.20;;;;;;5032527;28;20082;-67
2023/10/21 06:57:40;;;;;;;79.38;27.15;;;27.10;51.40;;;;;;5032780;28;20091;-67
2023/10/21 07:00:08;;;;;;;93.35;26.83;;;27.10;52.10;;;;;;5036589;28;20579;-67
2023/10/21 07:02:35;;;;;;;87.38;25.60;;;27.00;52.10;;;;;;5032987;28;20153;-67
2023/10/21 07:05:03;;;;;;;84.03;25.67;;;27.00;51.70;;;;;;5033751;28;20098;-68
2023/10/21 07:07:30;;;;;;;86.93;24.35;;;27.00;51.40;;;;;;5032371;28;20084;-68
2023/10/21 07:09:56;;;;;;;98.72;25.95;;;27.00;51.20;;;;;;5032310;28;20151;-67
2023/10/21 07:12:23;;;;;;;79.93;24.45;;;27.00;51.40;;;;;;5030845;28;20132;-67
2023/10/21 07:14:49;;;;;;;109.53;24.58;;;27.00;51.60;;;;;;5030252;28;20073;-67
2023/10/21 07:17:16;;;;;;;105.53;24.65;;;26.90;51.00;;;;;;5026185;28;20551;-68
2023/10/21 07:19:42;;;;;;;92.53;22.75;;;26.90;50.30;;;;;;5031459;28;20071;-69
2023/10/21 07:22:09;;;;;;;75.93;22.63;;;26.90;50.80;;;;;;5035759;28;20164;-67
2023/10/21 07:24:36;;;;;;;78.72;22.33;;;26.90;51.30;;;;;;5029407;28;20086;-67
2023/10/21 07:27:02;;;;;;;69.57;20.33;;;26.90;51.10;;;;;;5037813;28;20273;-68
2023/10/21 07:29:29;;;;;;;68.28;20.67;;;26.90;49.30;;;;;;5033506;28;20154;-67
2023/10/21 07:31:55;;;;;;;49.47;15.13;;;26.90;49.00;;;;;;5033410;28;20068;-67
2023/10/21 07:34:22;;;;;;;42.65;11.52;;;27.00;48.40;;;;;;5030849;28;20069;-67
2023/10/21 07:36:48;;;;;;;32.60;8.90;;;27.10;47.80;;;;;;5034706;28;20091;-66
2023/10/21 07:39:18;;;;;;;24.20;7.88;;;27.10;46.80;;;;;;5030853;28;20566;-68
2023/10/21 07:41:44;;;;;;;32.65;6.97;;;27.20;46.30;;;;;;5031144;28;20505;-68
2023/10/21 07:44:11;;;;;;;22.58;6.63;;;27.40;45.80;;;;;;5036382;28;20538;-67
2023/10/21 07:46:38;;;;;;;27.08;6.75;;;27.50;45.70;;;;;;5030879;28;20082;-68
2023/10/21 07:49:06;;;;;;;25.73;6.70;;;27.50;45.90;;;;;;5028272;28;20419;-67
2023/10/21 07:51:33;;;;;;;32.35;8.02;;;27.50;46.60;;;;;;5031612;28;20076;-67
2023/10/21 07:53:59;;;;;;;23.98;6.47;;;27.40;46.50;;;;;;5035002;28;20076;-68
2023/10/21 07:56:26;;;;;;;21.20;6.35;;;27.50;46.60;;;;;;5030599;28;20080;-67
2023/10/21 07:58:52;;;;;;;18.35;6.75;;;27.50;46.70;;;;;;5033192;28;20056;-68
2023/10/21 08:01:19;;;;;;;28.58;6.82;;;27.50;46.20;;;;;;5026965;28;20543;-67
2023/10/21 08:03:45;;;;;;;26.05;6.95;;;27.50;46.10;;;;;;5029538;28;20061;-66
2023/10/21 08:06:14;;;;;;;19.88;7.15;;;27.50;46.50;;;;;;5028811;28;20105;-68
2023/10/21 08:08:42;;;;;;;22.70;6.70;;;27.60;46.80;;;;;;5028453;28;20063;-67
2023/10/21 08:11:09;;;;;;;17.92;7.43;;;27.60;46.30;;;;;;5033533;28;20063;-67
2023/10/21 08:13:36;;;;;;;20.52;6.68;;;27.60;46.50;;;;;;5028652;28;20059;-66
2023/10/21 08:16:02;;;;;;;15.70;5.15;;;27.60;46.40;;;;;;5032441;28;20137;-69
2023/10/21 08:18:29;;;;;;;12.45;4.90;;;27.70;45.90;;;;;;5031499;28;20075;-68
2023/10/21 08:20:55;;;;;;;15.13;4.93;;;27.80;46.20;;;;;;5030160;28;20237;-67
2023/10/21 08:23:22;;;;;;;11.93;4.57;;;27.80;46.50;;;;;;5028672;28;20088;-67
2023/10/21 08:25:48;;;;;;;8.50;4.13;;;27.80;46.50;;;;;;5035852;28;20069;-68
2023/10/21 08:28:15;;;;;;;11.57;4.03;;;27.80;46.40;;;;;;5029408;28;20103;-66
2023/10/21 08:30:41;;;;;;;20.58;4.53;;;27.80;46.40;;;;;;5028990;28;20064;-66
2023/10/21 08:33:07;;;;;;;14.90;4.35;;;27.80;46.80;;;;;;5031400;28;20052;-67
2023/10/21 08:35:34;;;;;;;7.68;3.40;;;27.80;47.10;;;;;;5033136;28;20124;-66
2023/10/21 08:38:00;;;;;;;12.95;3.97;;;27.80;47.10;;;;;;5032243;28;20118;-67
2023/10/21 08:40:27;;;;;;;11.00;3.72;;;27.80;47.60;;;;;;5033259;28;20066;-67
2023/10/21 08:42:54;;;;;;;8.98;3.67;;;27.80;47.60;;;;;;5031589;28;20069;-68
2023/10/21 08:45:21;;;;;;;8.50;3.28;;;27.80;47.40;;;;;;5031642;28;20065;-66
2023/10/21 08:47:50;;;;;;;7.97;3.80;;;27.70;47.70;;;;;;5032312;28;20127;-66
2023/10/21 08:50:20;;;;;;;12.13;3.65;;;27.60;48.10;;;;;;5029300;28;20072;-67
2023/10/21 08:52:50;;;;;;;11.50;4.55;;;27.50;48.30;;;;;;5034962;28;20065;-66
2023/10/21 08:55:16;;;;;;;17.40;4.20;;;27.40;48.50;;;;;;5030268;28;20069;-67
2023/10/21 08:57:43;;;;;;;15.82;4.45;;;27.40;49.00;;;;;;5032839;28;20106;-67
2023/10/21 09:00:10;;;;;;;18.92;4.03;;;27.30;49.10;;;;;;5031628;28;20058;-67
2023/10/21 09:02:37;;;;;;;15.05;4.07;;;27.30;49.20;;;;;;5030853;28;20127;-68
2023/10/21 09:05:12;;;;;;;10.93;3.90;;;27.20;49.40;;;;;;5030680;28;20064;-68
2023/10/21 09:07:49;;;;;;;12.77;4.00;;;27.10;49.70;;;;;;5031736;28;20066;-67
2023/10/21 09:10:17;;;;;;;24.80;4.22;;;27.10;49.30;;;;;;5031467;28;20136;-67
2023/10/21 09:12:45;;;;;;;15.05;4.30;;;27.00;49.70;;;;;;5028827;28;20080;-66
2023/10/21 09:15:12;;;;;;;13.05;4.00;;;27.00;48.90;;;;;;5029413;28;20105;-67
2023/10/21 09:17:39;;;;;;;16.73;3.90;;;27.00;48.60;;;;;;5025824;28;20181;-67
2023/10/21 09:20:10;;;;;;;9.30;3.45;;;27.10;48.70;;;;;;5024620;28;20072;-67
2023/10/21 09:22:37;;;;;;;14.50;4.28;;;27.00;48.60;;;;;;5024054;28;20546;-67
2023/10/21 09:25:20;;;;;;;22.00;4.20;;;27.00;48.00;;;;;;5030419;28;20380;-68
2023/10/21 09:27:58;;;;;;;12.85;4.20;;;27.10;47.90;;;;;;5030218;28;20554;-68
2023/10/21 09:30:30;;;;;;;12.80;3.83;;;27.10;48.20;;;;;;5026349;28;20157;-67
2023/10/21 09:33:10;;;;;;;17.95;3.70;;;27.00;48.30;;;;;;5033108;28;20067;-67
2023/10/21 09:35:37;;;;;;;14.32;3.85;;;27.00;48.70;;;;;;5033686;28;20217;-66
2023/10/21 09:38:17;;;;;;;13.48;4.22;;;27.00;48.40;;;;;;5034205;28;20182;-68
2023/10/21 09:40:44;;;;;;;11.82;4.00;;;27.00;48.70;;;;;;5029168;28;22127;-67
2023/10/21 09:43:14;;;;;;;11.02;3.85;;;27.00;48.70;;;;;;5037175;28;20141;-66
2023/10/21 09:45:44;;;;;;;23.73;4.80;;;27.00;49.00;;;;;;5033828;28;20065;-67
2023/10/21 09:48:11;;;;;;;16.30;3.88;;;26.90;48.90;;;;;;5035801;28;20143;-67
2023/10/21 09:50:46;;;;;;;13.95;3.78;;;26.80;49.20;;;;;;5029810;28;20075;-66
2023/10/21 09:53:15;;;;;;;11.45;3.65;;;26.80;49.60;;;;;;5035581;28;20095;-67
2023/10/21 09:55:42;;;;;;;14.00;3.80;;;26.80;49.70;;;;;;5032034;28;20085;-68
2023/10/21 09:58:10;;;;;;;12.07;3.80;;;26.80;49.90;;;;;;5032165;28;20084;-67
2023/10/21 10:00:37;;;;;;;11.15;3.67;;;26.80;49.80;;;;;;5031936;28;20078;-67
2023/10/21 10:03:08;;;;;;;12.05;3.75;;;26.80;49.80;;;;;;5040232;28;20148;-66
2023/10/21 10:05:37;;;;;;;10.55;3.42;;;26.70;49.60;;;;;;5038102;28;20073;-66
2023/10/21 10:08:04;;;;;;;12.30;4.03;;;26.70;49.90;;;;;;5035385;28;20084;-65
2023/10/21 10:10:31;;;;;;;13.18;4.10;;;26.70;49.70;;;;;;5034082;28;20414;-66
2023/10/21 10:13:15;;;;;;;11.95;3.95;;;26.70;50.20;;;;;;5035901;28;20069;-67
2023/10/21 10:15:42;;;;;;;20.23;4.55;;;26.60;50.90;;;;;;5029928;28;20067;-67
2023/10/21 10:18:15;;;;;;;16.13;4.28;;;26.60;50.80;;;;;;5036633;28;20627;-67
2023/10/21 10:20:50;;;;;;;10.85;3.95;;;26.50;51.40;;;;;;5034036;28;20137;-66
2023/10/21 10:23:18;;;;;;;13.60;4.03;;;26.50;51.80;;;;;;5030370;28;20224;-66
2023/10/21 10:25:52;;;;;;;15.75;4.43;;;26.50;51.70;;;;;;5035729;28;20068;-66
2023/10/21 10:28:28;;;;;;;15.15;4.18;;;26.50;51.60;;;;;;5032871;28;20225;-67
2023/10/21 10:30:56;;;;;;;;;;;26.40;51.40;;;;;;5034826;28;20132;-67
2023/10/21 10:33:31;;;;;;;16.00;3.72;;;26.40;52.00;;;;;;5035936;28;20447;-67
2023/10/21 10:36:06;;;;;;;11.82;3.80;;;26.30;52.30;;;;;;5033875;28;20065;-66
2023/10/21 10:38:42;;;;;;;15.00;3.83;;;26.30;51.90;;;;;;5034000;28;20158;-67
2023/10/21 10:41:11;;;;;;;16.20;4.10;;;26.20;51.90;;;;;;5034171;28;20087;-66
2023/10/21 10:43:45;;;;;;;14.65;3.90;;;26.20;52.20;;;;;;5034721;28;20083;-66
2023/10/21 10:46:19;;;;;;;14.10;4.15;;;26.20;52.40;;;;;;5032749;28;20071;-66
2023/10/21 10:48:49;;;;;;;16.67;4.18;;;26.10;53.10;;;;;;5028383;28;20413;-66
2023/10/21 10:51:15;;;;;;;9.65;4.20;;;26.10;52.20;;;;;;5030818;28;20073;-65
2023/10/21 10:54:00;;;;;;;10.73;4.00;;;26.10;51.60;;;;;;5031904;28;20398;-67
2023/10/21 10:56:49;;;;;;;9.95;3.80;;;26.10;52.10;;;;;;5031528;28;20276;-67
2023/10/21 10:59:19;;;;;;;8.82;3.83;;;26.10;51.80;;;;;;5036200;28;20073;-66
2023/10/21 11:02:01;;;;;;;8.98;3.50;;;26.00;51.90;;;;;;5035630;28;20426;-66
2023/10/21 11:04:32;;;;;;;11.18;3.85;;;26.00;51.20;;;;;;5034940;28;20076;-66
2023/10/21 11:06:59;;;;;;;11.25;3.47;;;26.00;51.20;;;;;;5035681;28;20473;-66
2023/10/21 11:09:30;;;;;;;8.90;3.40;;;25.90;51.40;;;;;;5037049;28;20076;-66
2023/10/21 11:11:57;;;;;;;8.32;3.88;;;25.90;51.80;;;;;;5030363;28;20080;-66
2023/10/21 11:14:24;;;;;;;14.07;3.60;;;25.80;51.40;;;;;;5030701;28;20124;-66
2023/10/21 11:16:51;;;;;;;14.35;4.00;;;25.90;51.80;;;;;;5032032;28;20079;-66
2023/10/21 11:19:17;;;;;;;10.75;3.75;;;25.90;51.80;;;;;;5036004;28;20070;-67
2023/10/21 11:21:48;;;;;;;12.70;4.00;;;25.90;52.00;;;;;;5031567;28;20098;-66
2023/10/21 11:24:15;;;;;;;11.52;4.28;;;25.80;51.80;;;;;;5034355;28;20123;-65
2023/10/21 11:26:43;;;;;;;13.73;3.30;;;25.80;51.40;;;;;;5036622;28;20100;-67
2023/10/21 11:29:09;;;;;;;13.48;4.50;;;25.80;51.60;;;;;;5032440;28;20077;-66
2023/10/21 11:31:36;;;;;;;10.00;4.00;;;25.80;51.50;;;;;;5030155;28;20087;-65
2023/10/21 11:34:13;;;;;;;10.10;3.85;;;25.80;51.60;;;;;;5036171;28;20549;-66
2023/10/21 11:36:46;;;;;;;11.60;3.90;;;25.80;51.50;;;;;;5034706;28;20131;-67
2023/10/21 11:39:15;;;;;;;15.80;3.50;;;25.80;51.20;;;;;;5031764;28;20528;-67
2023/10/21 11:41:48;;;;;;;9.73;3.53;;;25.80;51.20;;;;;;5029476;28;20078;-66
2023/10/21 11:44:20;;;;;;;13.10;3.45;;;25.80;50.80;;;;;;5032192;28;20544;-67
2023/10/21 11:46:46;;;;;;;10.23;3.15;;;25.80;50.50;;;;;;5034910;28;20098;-67
2023/10/21 11:49:15;;;;;;;14.00;4.00;;;25.80;49.80;;;;;;5029330;28;20081;-65
2023/10/21 11:51:46;;;;;;;16.45;3.85;;;25.90;49.10;;;;;;5031759;28;20611;-67
2023/10/21 11:54:39;;;;;;;13.05;3.60;;;26.00;48.10;;;;;;5026181;28;20130;-67
2023/10/21 12:42:27;;;;;;;12.40;5.28;;;25.80;49.90;;;;;;5027736;28;20128;-68
2023/10/21 12:44:57;;;;;;;9.25;4.93;;;25.80;48.60;;;;;;5033244;28;20075;-68
2023/10/21 12:47:27;;;;;;;13.82;5.60;;;25.80;48.90;;;;;;5028225;28;20118;-67
2023/10/21 12:49:57;;;;;;;15.40;5.18;;;25.80;49.30;;;;;;5033016;28;20080;-67
2023/10/21 12:52:24;;;;;;;13.23;5.15;;;25.80;49.50;;;;;;5035175;28;20450;-68
2023/10/21 12:54:53;;;;;;;14.32;4.85;;;25.80;49.30;;;;;;5027872;28;20082;-67
2023/10/21 12:57:21;;;;;;;12.63;5.05;;;25.80;49.80;;;;;;5028301;28;20557;-67
2023/10/21 12:59:50;;;;;;;7.15;3.90;;;25.70;49.10;;;;;;5029272;28;20487;-68
2023/10/21 13:02:16;;;;;;;10.55;4.25;;;25.70;49.50;;;;;;5030581;28;20168;-68
2023/10/21 13:04:43;;;;;;;12.13;4.13;;;25.70;50.20;;;;;;5031902;28;20076;-67
2023/10/21 13:07:09;;;;;;;12.77;4.28;;;25.70;49.90;;;;;;5034556;28;20107;-67
2023/10/21 13:09:38;;;;;;;6.65;3.85;;;25.70;50.10;;;;;;5029416;28;20114;-68
2023/10/21 13:12:09;;;;;;;13.10;3.80;;;25.70;50.30;;;;;;5030330;28;20068;-68
2023/10/21 13:14:36;;;;;;;10.82;3.92;;;25.70;49.80;;;;;;5036140;28;20165;-67
2023/10/21 13:17:07;;;;;;;10.35;3.83;;;25.70;49.70;;;;;;5032872;28;20084;-66
2023/10/21 13:19:34;;;;;;;7.90;4.35;;;25.70;50.00;;;;;;5033686;28;20082;-67
2023/10/21 13:22:05;;;;;;;7.40;3.45;;;25.60;50.60;;;;;;5033604;28;20439;-66
2023/10/21 13:24:33;;;;;;;10.20;3.83;;;25.60;50.30;;;;;;5035700;28;20406;-68
2023/10/21 13:26:59;;;;;;;9.93;4.30;;;25.50;50.30;;;;;;5039515;28;20471;-66
2023/10/21 13:29:26;;;;;;;12.65;4.10;;;25.50;50.30;;;;;;5036458;28;20076;-66